Longview Airport

About
Name: Longview Airport
Identifier:  KLS/KKLS
Local Time:  20. Aug 07:46 PDT
Location
Flights per Day
0 flights
Distance: 201km (124mi)
Punctuality
0% (0 flights per day delayed)
Delay Average: 10 minutes
Current Weather
 11 C (Humidity: 100%)
  0kt (0km/h / 0mph) from 0°
  Broken clouds at 400 feet (121 meter)
  16km (10 mi.)
 METAR KKLS 201410Z AUTO 00000KT 10SM BKN004 11/11 A2997 RMK AO2

Current Flights

Departures
Number Departure To Airline
Arrivals
Number Arrival From Airline

Current Delays

Departures
N/A
Arrivals
N/A

Destinations

Top Destinations
Airport Flights
per week
Seats
per week
  Burlington/Mount Vernon (MVW) 0 - 0 0
  Astoria (AST) 0 - 0 0
  Bellingham (BLI) 0 - 0 0
  Orange County (SNA) 0 - 0 0
  Eastsound (ESD) 0 - 0 0
  Everett (PAE) 0 - 0 0
  Portland (HIO) 0 - 0 0
  Redmond (RDM) 0 - 0 0
  Portland (PDX) 0 - 0 0

Airlines & Planes

Top Airlines
Airline Flights
per Day
Seats
per Day
  Nolinor Aviation 0 -
  National Airlines 0 -
  Flybe Nordic 0 -
  Novair 0 -
Top Plane Types
Model Flights Seats
Cessna C172 0.2/day - 0
Cessna C182 0.1/day - 0
Tecnam P2006T 0.0/day - 0
Beech E90 King Air 0.0/day - 0